sensor_id;sensor_type;location;lat;lon;timestamp;temperature;humidity
43671;DHT22;29267;50.906;7.248;2024-03-17T00:02:20;5.00;99.90
43671;DHT22;29267;50.906;7.248;2024-03-17T00:04:46;5.00;99.90
43671;DHT22;29267;50.906;7.248;2024-03-17T00:07:12;4.90;99.90
43671;DHT22;29267;50.906;7.248;2024-03-17T00:09:38;4.90;99.90
43671;DHT22;29267;50.906;7.248;2024-03-17T00:12:04;4.90;99.90
43671;DHT22;29267;50.906;7.248;2024-03-17T00:14:30;4.90;99.90
43671;DHT22;29267;50.906;7.248;2024-03-17T00:16:56;4.90;99.90
43671;DHT22;29267;50.906;7.248;2024-03-17T00:19:23;4.90;99.90
43671;DHT22;29267;50.906;7.248;2024-03-17T00:21:49;4.80;99.90
43671;DHT22;29267;50.906;7.248;2024-03-17T00:24:18;4.80;99.90
43671;DHT22;29267;50.906;7.248;2024-03-17T00:26:45;4.80;99.90
43671;DHT22;29267;50.906;7.248;2024-03-17T00:29:10;4.70;99.90
43671;DHT22;29267;50.906;7.248;2024-03-17T00:31:36;4.70;99.90
43671;DHT22;29267;50.906;7.248;2024-03-17T00:34:02;4.70;99.90
43671;DHT22;29267;50.906;7.248;2024-03-17T00:36:28;4.60;99.90
43671;DHT22;29267;50.906;7.248;2024-03-17T00:38:53;4.50;99.90
43671;DHT22;29267;50.906;7.248;2024-03-17T00:41:19;4.50;99.90
43671;DHT22;29267;50.906;7.248;2024-03-17T00:43:45;4.50;99.90
43671;DHT22;29267;50.906;7.248;2024-03-17T00:46:10;4.50;99.90
43671;DHT22;29267;50.906;7.248;2024-03-17T00:48:36;4.40;99.90
43671;DHT22;29267;50.906;7.248;2024-03-17T00:51:01;4.50;99.90
43671;DHT22;29267;50.906;7.248;2024-03-17T00:53:28;4.50;99.90
43671;DHT22;29267;50.906;7.248;2024-03-17T00:55:55;4.50;99.90
43671;DHT22;29267;50.906;7.248;2024-03-17T00:58:23;4.50;99.90
43671;DHT22;29267;50.906;7.248;2024-03-17T01:00:49;4.40;99.90
43671;DHT22;29267;50.906;7.248;2024-03-17T01:03:18;4.30;99.90
43671;DHT22;29267;50.906;7.248;2024-03-17T01:05:44;4.30;99.90
43671;DHT22;29267;50.906;7.248;2024-03-17T01:08:13;4.20;99.90
43671;DHT22;29267;50.906;7.248;2024-03-17T01:10:42;4.20;99.90
43671;DHT22;29267;50.906;7.248;2024-03-17T01:13:09;4.10;99.90
43671;DHT22;29267;50.906;7.248;2024-03-17T01:15:36;4.10;99.90
43671;DHT22;29267;50.906;7.248;2024-03-17T01:18:02;4.10;99.90
43671;DHT22;29267;50.906;7.248;2024-03-17T01:20:30;4.10;99.90
43671;DHT22;29267;50.906;7.248;2024-03-17T01:22:55;4.00;99.90
43671;DHT22;29267;50.906;7.248;2024-03-17T01:25:21;4.00;99.90
43671;DHT22;29267;50.906;7.248;2024-03-17T01:27:46;4.00;99.90
43671;DHT22;29267;50.906;7.248;2024-03-17T01:30:12;4.00;99.90
43671;DHT22;29267;50.906;7.248;2024-03-17T01:32:38;4.00;99.90
43671;DHT22;29267;50.906;7.248;2024-03-17T01:35:04;4.00;99.90
43671;DHT22;29267;50.906;7.248;2024-03-17T01:37:31;4.00;99.90
43671;DHT22;29267;50.906;7.248;2024-03-17T01:39:58;3.90;99.90
43671;DHT22;29267;50.906;7.248;2024-03-17T01:42:23;3.90;99.90
43671;DHT22;29267;50.906;7.248;2024-03-17T01:44:49;3.90;99.90
43671;DHT22;29267;50.906;7.248;2024-03-17T01:47:16;3.90;99.90
43671;DHT22;29267;50.906;7.248;2024-03-17T01:49:47;3.80;99.90
43671;DHT22;29267;50.906;7.248;2024-03-17T01:52:14;3.80;99.90
43671;DHT22;29267;50.906;7.248;2024-03-17T01:54:40;3.80;99.90
43671;DHT22;29267;50.906;7.248;2024-03-17T01:57:06;3.80;99.90
43671;DHT22;29267;50.906;7.248;2024-03-17T01:59:32;3.80;99.90
43671;DHT22;29267;50.906;7.248;2024-03-17T02:01:58;3.80;99.90
43671;DHT22;29267;50.906;7.248;2024-03-17T02:04:23;3.70;99.90
43671;DHT22;29267;50.906;7.248;2024-03-17T02:06:49;3.70;99.90
43671;DHT22;29267;50.906;7.248;2024-03-17T02:09:14;3.70;99.90
43671;DHT22;29267;50.906;7.248;2024-03-17T02:11:40;3.70;99.90
43671;DHT22;29267;50.906;7.248;2024-03-17T02:14:06;3.70;99.90
43671;DHT22;29267;50.906;7.248;2024-03-17T02:16:33;3.70;99.90
43671;DHT22;29267;50.906;7.248;2024-03-17T02:18:58;3.60;99.90
43671;DHT22;29267;50.906;7.248;2024-03-17T02:21:25;3.60;99.90
43671;DHT22;29267;50.906;7.248;2024-03-17T02:23:54;3.60;99.90
43671;DHT22;29267;50.906;7.248;2024-03-17T02:26:21;3.70;99.90
43671;DHT22;29267;50.906;7.248;2024-03-17T02:28:47;3.60;99.90
43671;DHT22;29267;50.906;7.248;2024-03-17T02:31:15;3.60;99.90
43671;DHT22;29267;50.906;7.248;2024-03-17T02:33:42;3.60;99.90
43671;DHT22;29267;50.906;7.248;2024-03-17T02:36:08;3.60;99.90
43671;DHT22;29267;50.906;7.248;2024-03-17T02:38:35;3.60;99.90
43671;DHT22;29267;50.906;7.248;2024-03-17T02:41:19;3.60;99.90
43671;DHT22;29267;50.906;7.248;2024-03-17T02:43:45;3.60;99.90
43671;DHT22;29267;50.906;7.248;2024-03-17T02:46:12;3.60;99.90
43671;DHT22;29267;50.906;7.248;2024-03-17T02:48:39;3.60;99.90
43671;DHT22;29267;50.906;7.248;2024-03-17T02:51:11;3.60;99.90
43671;DHT22;29267;50.906;7.248;2024-03-17T02:53:37;3.50;99.90
43671;DHT22;29267;50.906;7.248;2024-03-17T02:56:03;3.50;99.90
43671;DHT22;29267;50.906;7.248;2024-03-17T02:58:28;3.50;99.90
43671;DHT22;29267;50.906;7.248;2024-03-17T03:00:54;3.40;99.90
43671;DHT22;29267;50.906;7.248;2024-03-17T03:03:19;3.40;99.90
43671;DHT22;29267;50.906;7.248;2024-03-17T03:05:45;3.40;99.90
43671;DHT22;29267;50.906;7.248;2024-03-17T03:08:11;3.40;99.90
43671;DHT22;29267;50.906;7.248;2024-03-17T03:10:36;3.30;99.90
43671;DHT22;29267;50.906;7.248;2024-03-17T03:13:02;3.30;99.90
43671;DHT22;29267;50.906;7.248;2024-03-17T03:15:31;3.30;99.90
43671;DHT22;29267;50.906;7.248;2024-03-17T03:17:58;3.30;99.90
43671;DHT22;29267;50.906;7.248;2024-03-17T03:20:23;3.20;99.90
43671;DHT22;29267;50.906;7.248;2024-03-17T03:22:49;3.20;99.90
43671;DHT22;29267;50.906;7.248;2024-03-17T03:25:14;3.10;99.90
43671;DHT22;29267;50.906;7.248;2024-03-17T03:27:40;3.10;99.90
43671;DHT22;29267;50.906;7.248;2024-03-17T03:30:06;3.10;99.90
43671;DHT22;29267;50.906;7.248;2024-03-17T03:32:34;3.00;99.90
43671;DHT22;29267;50.906;7.248;2024-03-17T03:34:59;3.00;99.90
43671;DHT22;29267;50.906;7.248;2024-03-17T03:37:25;3.10;99.90
43671;DHT22;29267;50.906;7.248;2024-03-17T03:39:51;3.10;99.90
43671;DHT22;29267;50.906;7.248;2024-03-17T03:42:16;3.10;99.90
43671;DHT22;29267;50.906;7.248;2024-03-17T03:44:42;3.10;99.90
43671;DHT22;29267;50.906;7.248;2024-03-17T03:47:08;3.10;99.90
43671;DHT22;29267;50.906;7.248;2024-03-17T03:49:34;3.10;99.90
43671;DHT22;29267;50.906;7.248;2024-03-17T03:51:59;3.00;99.90
43671;DHT22;29267;50.906;7.248;2024-03-17T03:54:25;3.00;99.90
43671;DHT22;29267;50.906;7.248;2024-03-17T03:56:51;3.00;99.90
43671;DHT22;29267;50.906;7.248;2024-03-17T03:59:16;2.90;99.90
43671;DHT22;29267;50.906;7.248;2024-03-17T04:01:42;2.90;99.90
43671;DHT22;29267;50.906;7.248;2024-03-17T04:04:08;2.90;99.90
43671;DHT22;29267;50.906;7.248;2024-03-17T04:06:33;2.90;99.90
43671;DHT22;29267;50.906;7.248;2024-03-17T04:08:59;2.90;99.90
43671;DHT22;29267;50.906;7.248;2024-03-17T04:11:24;2.90;99.90
43671;DHT22;29267;50.906;7.248;2024-03-17T04:13:50;2.90;99.90
43671;DHT22;29267;50.906;7.248;2024-03-17T04:16:16;2.90;99.90
43671;DHT22;29267;50.906;7.248;2024-03-17T04:18:42;2.90;99.90
43671;DHT22;29267;50.906;7.248;2024-03-17T04:21:07;2.90;99.90
43671;DHT22;29267;50.906;7.248;2024-03-17T04:23:33;2.90;99.90
43671;DHT22;29267;50.906;7.248;2024-03-17T04:25:59;2.90;99.90
43671;DHT22;29267;50.906;7.248;2024-03-17T04:28:26;2.90;99.90
43671;DHT22;29267;50.906;7.248;2024-03-17T04:30:51;2.90;99.90
43671;DHT22;29267;50.906;7.248;2024-03-17T04:33:17;2.90;99.90
43671;DHT22;29267;50.906;7.248;2024-03-17T04:35:43;2.90;99.90
43671;DHT22;29267;50.906;7.248;2024-03-17T04:38:09;2.90;99.90
43671;DHT22;29267;50.906;7.248;2024-03-17T04:40:39;2.90;99.90
43671;DHT22;29267;50.906;7.248;2024-03-17T04:43:05;2.90;99.90
43671;DHT22;29267;50.906;7.248;2024-03-17T04:45:31;2.80;99.90
43671;DHT22;29267;50.906;7.248;2024-03-17T04:47:56;2.80;99.90
43671;DHT22;29267;50.906;7.248;2024-03-17T04:50:22;2.80;99.90
43671;DHT22;29267;50.906;7.248;2024-03-17T04:52:47;2.80;99.90
43671;DHT22;29267;50.906;7.248;2024-03-17T04:55:14;2.80;99.90
43671;DHT22;29267;50.906;7.248;2024-03-17T04:57:42;2.80;99.90
43671;DHT22;29267;50.906;7.248;2024-03-17T05:00:08;2.80;99.90
43671;DHT22;29267;50.906;7.248;2024-03-17T05:02:37;2.80;99.90
43671;DHT22;29267;50.906;7.248;2024-03-17T05:05:03;2.80;99.90
43671;DHT22;29267;50.906;7.248;2024-03-17T05:07:30;2.80;99.90
43671;DHT22;29267;50.906;7.248;2024-03-17T05:09:56;2.80;99.90
43671;DHT22;29267;50.906;7.248;2024-03-17T05:12:22;2.80;99.90
43671;DHT22;29267;50.906;7.248;2024-03-17T05:14:47;2.70;99.90
43671;DHT22;29267;50.906;7.248;2024-03-17T05:17:13;2.70;99.90
43671;DHT22;29267;50.906;7.248;2024-03-17T05:19:38;2.70;99.90
43671;DHT22;29267;50.906;7.248;2024-03-17T05:22:04;2.70;99.90
43671;DHT22;29267;50.906;7.248;2024-03-17T05:24:29;2.70;99.90
43671;DHT22;29267;50.906;7.248;2024-03-17T05:26:55;2.80;99.90
43671;DHT22;29267;50.906;7.248;2024-03-17T05:29:20;2.90;99.90
43671;DHT22;29267;50.906;7.248;2024-03-17T05:31:48;2.90;99.90
43671;DHT22;29267;50.906;7.248;2024-03-17T05:34:13;2.90;99.90
43671;DHT22;29267;50.906;7.248;2024-03-17T05:36:39;2.90;99.90
43671;DHT22;29267;50.906;7.248;2024-03-17T05:39:05;3.00;99.90
43671;DHT22;29267;50.906;7.248;2024-03-17T05:41:30;3.00;99.90
43671;DHT22;29267;50.906;7.248;2024-03-17T05:43:56;3.00;99.90
43671;DHT22;29267;50.906;7.248;2024-03-17T05:46:24;3.20;99.90
43671;DHT22;29267;50.906;7.248;2024-03-17T05:48:51;3.30;99.90
43671;DHT22;29267;50.906;7.248;2024-03-17T05:51:16;3.30;99.90
43671;DHT22;29267;50.906;7.248;2024-03-17T05:53:42;3.40;99.90
43671;DHT22;29267;50.906;7.248;2024-03-17T05:56:11;3.40;99.90
43671;DHT22;29267;50.906;7.248;2024-03-17T05:58:38;3.50;99.90
43671;DHT22;29267;50.906;7.248;2024-03-17T06:01:05;3.70;99.90
43671;DHT22;29267;50.906;7.248;2024-03-17T06:03:32;3.70;99.90
43671;DHT22;29267;50.906;7.248;2024-03-17T06:06:01;3.80;99.90
43671;DHT22;29267;50.906;7.248;2024-03-17T06:08:27;3.80;99.90
43671;DHT22;29267;50.906;7.248;2024-03-17T06:10:53;3.90;99.90
43671;DHT22;29267;50.906;7.248;2024-03-17T06:13:18;4.00;99.90
43671;DHT22;29267;50.906;7.248;2024-03-17T06:15:45;4.10;99.90
43671;DHT22;29267;50.906;7.248;2024-03-17T06:18:13;4.10;99.90
43671;DHT22;29267;50.906;7.248;2024-03-17T06:20:40;4.30;99.90
43671;DHT22;29267;50.906;7.248;2024-03-17T06:23:08;4.40;99.90
43671;DHT22;29267;50.906;7.248;2024-03-17T06:25:44;4.50;99.90
43671;DHT22;29267;50.906;7.248;2024-03-17T06:28:11;4.70;99.90
43671;DHT22;29267;50.906;7.248;2024-03-17T06:30:40;4.80;99.90
43671;DHT22;29267;50.906;7.248;2024-03-17T06:33:06;5.00;99.90
43671;DHT22;29267;50.906;7.248;2024-03-17T06:35:31;5.20;99.90
43671;DHT22;29267;50.906;7.248;2024-03-17T06:38:00;5.30;99.90
43671;DHT22;29267;50.906;7.248;2024-03-17T06:40:28;5.40;99.90
43671;DHT22;29267;50.906;7.248;2024-03-17T06:42:54;5.50;99.90
43671;DHT22;29267;50.906;7.248;2024-03-17T06:45:20;5.70;99.90
43671;DHT22;29267;50.906;7.248;2024-03-17T06:47:48;5.80;99.90
43671;DHT22;29267;50.906;7.248;2024-03-17T06:50:14;5.90;99.90
43671;DHT22;29267;50.906;7.248;2024-03-17T06:52:40;5.90;99.90
43671;DHT22;29267;50.906;7.248;2024-03-17T06:55:06;6.10;99.90
43671;DHT22;29267;50.906;7.248;2024-03-17T06:57:32;6.20;99.90
43671;DHT22;29267;50.906;7.248;2024-03-17T06:59:59;6.70;99.90
43671;DHT22;29267;50.906;7.248;2024-03-17T07:02:25;7.20;99.90
43671;DHT22;29267;50.906;7.248;2024-03-17T07:04:50;8.10;99.90
43671;DHT22;29267;50.906;7.248;2024-03-17T07:07:16;9.30;99.90
43671;DHT22;29267;50.906;7.248;2024-03-17T07:09:41;10.40;99.90
43671;DHT22;29267;50.906;7.248;2024-03-17T07:12:08;11.30;99.90
43671;DHT22;29267;50.906;7.248;2024-03-17T07:14:34;12.30;99.90
43671;DHT22;29267;50.906;7.248;2024-03-17T07:16:59;12.50;99.90
43671;DHT22;29267;50.906;7.248;2024-03-17T07:19:25;13.00;99.90
43671;DHT22;29267;50.906;7.248;2024-03-17T07:21:51;12.40;99.90
43671;DHT22;29267;50.906;7.248;2024-03-17T07:24:16;11.70;99.90
43671;DHT22;29267;50.906;7.248;2024-03-17T07:26:42;11.60;99.90
43671;DHT22;29267;50.906;7.248;2024-03-17T07:29:07;11.10;99.90
43671;DHT22;29267;50.906;7.248;2024-03-17T07:31:34;10.40;99.90
43671;DHT22;29267;50.906;7.248;2024-03-17T07:33:59;9.80;99.90
43671;DHT22;29267;50.906;7.248;2024-03-17T07:36:25;9.70;99.90
43671;DHT22;29267;50.906;7.248;2024-03-17T07:38:50;9.50;99.90
43671;DHT22;29267;50.906;7.248;2024-03-17T07:41:17;9.30;99.90
43671;DHT22;29267;50.906;7.248;2024-03-17T07:43:45;9.40;99.90
43671;DHT22;29267;50.906;7.248;2024-03-17T07:46:11;9.20;99.90
43671;DHT22;29267;50.906;7.248;2024-03-17T07:48:41;9.30;99.90
43671;DHT22;29267;50.906;7.248;2024-03-17T07:51:09;9.40;99.90
43671;DHT22;29267;50.906;7.248;2024-03-17T07:53:36;9.40;99.90
43671;DHT22;29267;50.906;7.248;2024-03-17T07:56:07;9.40;99.90
43671;DHT22;29267;50.906;7.248;2024-03-17T07:58:35;9.40;99.90
43671;DHT22;29267;50.906;7.248;2024-03-17T08:01:03;9.60;99.90
43671;DHT22;29267;50.906;7.248;2024-03-17T08:03:30;9.70;99.90
43671;DHT22;29267;50.906;7.248;2024-03-17T08:05:57;9.90;99.90
43671;DHT22;29267;50.906;7.248;2024-03-17T08:08:23;10.20;99.90
43671;DHT22;29267;50.906;7.248;2024-03-17T08:10:49;10.30;99.90
43671;DHT22;29267;50.906;7.248;2024-03-17T08:13:16;10.30;99.90
43671;DHT22;29267;50.906;7.248;2024-03-17T08:15:42;10.30;99.90
43671;DHT22;29267;50.906;7.248;2024-03-17T08:18:09;10.30;99.90
43671;DHT22;29267;50.906;7.248;2024-03-17T08:20:41;10.40;99.90
43671;DHT22;29267;50.906;7.248;2024-03-17T08:23:11;10.60;99.90
43671;DHT22;29267;50.906;7.248;2024-03-17T08:25:37;10.70;99.90
43671;DHT22;29267;50.906;7.248;2024-03-17T08:28:03;10.70;99.90
43671;DHT22;29267;50.906;7.248;2024-03-17T08:30:29;10.80;99.90
43671;DHT22;29267;50.906;7.248;2024-03-17T08:32:56;10.80;99.90
43671;DHT22;29267;50.906;7.248;2024-03-17T08:35:21;11.10;99.90
43671;DHT22;29267;50.906;7.248;2024-03-17T08:37:47;11.50;99.90
43671;DHT22;29267;50.906;7.248;2024-03-17T08:40:13;11.70;99.90
43671;DHT22;29267;50.906;7.248;2024-03-17T08:42:39;11.80;99.90
43671;DHT22;29267;50.906;7.248;2024-03-17T08:45:05;11.90;99.90
43671;DHT22;29267;50.906;7.248;2024-03-17T08:47:31;12.10;99.90
43671;DHT22;29267;50.906;7.248;2024-03-17T08:49:56;11.90;99.90
43671;DHT22;29267;50.906;7.248;2024-03-17T08:52:23;11.90;99.90
43671;DHT22;29267;50.906;7.248;2024-03-17T08:54:49;12.00;99.90
43671;DHT22;29267;50.906;7.248;2024-03-17T08:57:16;12.10;99.90
43671;DHT22;29267;50.906;7.248;2024-03-17T08:59:42;12.30;99.90
43671;DHT22;29267;50.906;7.248;2024-03-17T09:02:12;12.60;99.90
43671;DHT22;29267;50.906;7.248;2024-03-17T09:04:39;12.70;99.90
43671;DHT22;29267;50.906;7.248;2024-03-17T09:07:04;12.60;99.90
43671;DHT22;29267;50.906;7.248;2024-03-17T09:09:30;12.50;99.90
43671;DHT22;29267;50.906;7.248;2024-03-17T09:11:56;12.40;99.90
43671;DHT22;29267;50.906;7.248;2024-03-17T09:14:21;12.20;99.90
43671;DHT22;29267;50.906;7.248;2024-03-17T09:16:47;12.10;99.90
43671;DHT22;29267;50.906;7.248;2024-03-17T09:19:13;12.20;99.90
43671;DHT22;29267;50.906;7.248;2024-03-17T09:21:39;12.10;99.90
43671;DHT22;29267;50.906;7.248;2024-03-17T09:24:06;12.10;99.90
43671;DHT22;29267;50.906;7.248;2024-03-17T09:26:35;12.30;99.90
43671;DHT22;29267;50.906;7.248;2024-03-17T09:29:01;12.60;99.90
43671;DHT22;29267;50.906;7.248;2024-03-17T09:31:27;12.90;99.90
43671;DHT22;29267;50.906;7.248;2024-03-17T09:33:53;13.50;99.90
43671;DHT22;29267;50.906;7.248;2024-03-17T09:36:18;14.20;99.90
43671;DHT22;29267;50.906;7.248;2024-03-17T09:38:44;14.60;99.90
43671;DHT22;29267;50.906;7.248;2024-03-17T09:41:22;14.60;99.90
43671;DHT22;29267;50.906;7.248;2024-03-17T09:43:50;14.70;99.90
43671;DHT22;29267;50.906;7.248;2024-03-17T09:46:19;14.30;99.90
43671;DHT22;29267;50.906;7.248;2024-03-17T09:48:45;14.20;99.90
43671;DHT22;29267;50.906;7.248;2024-03-17T09:51:18;14.00;99.90
43671;DHT22;29267;50.906;7.248;2024-03-17T09:53:45;13.60;99.90
43671;DHT22;29267;50.906;7.248;2024-03-17T09:56:12;13.70;99.90
43671;DHT22;29267;50.906;7.248;2024-03-17T09:58:39;13.70;99.90
43671;DHT22;29267;50.906;7.248;2024-03-17T10:01:05;13.40;99.90
43671;DHT22;29267;50.906;7.248;2024-03-17T10:06:10;13.70;99.90
43671;DHT22;29267;50.906;7.248;2024-03-17T10:08:41;13.70;99.90
43671;DHT22;29267;50.906;7.248;2024-03-17T10:11:07;13.80;99.90
43671;DHT22;29267;50.906;7.248;2024-03-17T10:13:33;14.20;99.90
43671;DHT22;29267;50.906;7.248;2024-03-17T10:15:59;14.80;99.90
43671;DHT22;29267;50.906;7.248;2024-03-17T10:18:25;15.00;99.90
43671;DHT22;29267;50.906;7.248;2024-03-17T10:20:50;15.30;99.90
43671;DHT22;29267;50.906;7.248;2024-03-17T10:23:20;15.60;99.90
43671;DHT22;29267;50.906;7.248;2024-03-17T10:25:46;15.70;99.50
43671;DHT22;29267;50.906;7.248;2024-03-17T10:28:13;15.70;99.90
43671;DHT22;29267;50.906;7.248;2024-03-17T10:30:39;15.60;99.10
43671;DHT22;29267;50.906;7.248;2024-03-17T10:33:06;15.40;98.50
43671;DHT22;29267;50.906;7.248;2024-03-17T10:35:38;15.20;99.50
43671;DHT22;29267;50.906;7.248;2024-03-17T10:38:09;15.20;99.30
43671;DHT22;29267;50.906;7.248;2024-03-17T10:40:35;14.90;99.90
43671;DHT22;29267;50.906;7.248;2024-03-17T10:43:05;14.70;99.90
43671;DHT22;29267;50.906;7.248;2024-03-17T10:45:32;14.70;99.90
43671;DHT22;29267;50.906;7.248;2024-03-17T10:48:08;14.70;99.90
43671;DHT22;29267;50.906;7.248;2024-03-17T10:50:37;14.40;99.90
43671;DHT22;29267;50.906;7.248;2024-03-17T10:53:04;14.40;99.90
43671;DHT22;29267;50.906;7.248;2024-03-17T10:55:46;14.60;99.90
43671;DHT22;29267;50.906;7.248;2024-03-17T10:58:31;14.70;99.90
43671;DHT22;29267;50.906;7.248;2024-03-17T11:01:00;14.70;99.90
43671;DHT22;29267;50.906;7.248;2024-03-17T11:03:30;14.70;99.90
43671;DHT22;29267;50.906;7.248;2024-03-17T11:05:57;14.80;99.90
43671;DHT22;29267;50.906;7.248;2024-03-17T11:08:24;14.70;99.90
43671;DHT22;29267;50.906;7.248;2024-03-17T11:10:51;14.60;99.90
43671;DHT22;29267;50.906;7.248;2024-03-17T11:13:27;14.80;99.90
43671;DHT22;29267;50.906;7.248;2024-03-17T11:15:54;15.10;99.90
43671;DHT22;29267;50.906;7.248;2024-03-17T11:20:56;15.10;99.90
43671;DHT22;29267;50.906;7.248;2024-03-17T11:23:31;15.30;99.90
43671;DHT22;29267;50.906;7.248;2024-03-17T11:25:58;15.50;99.90
43671;DHT22;29267;50.906;7.248;2024-03-17T11:31:31;15.70;98.90
43671;DHT22;29267;50.906;7.248;2024-03-17T11:33:57;15.30;98.90
43671;DHT22;29267;50.906;7.248;2024-03-17T11:39:07;15.50;99.90
43671;DHT22;29267;50.906;7.248;2024-03-17T11:41:46;15.50;99.90
43671;DHT22;29267;50.906;7.248;2024-03-17T11:47:01;15.50;99.80
43671;DHT22;29267;50.906;7.248;2024-03-17T11:52:05;16.00;99.50
43671;DHT22;29267;50.906;7.248;2024-03-17T11:54:37;16.20;99.20
43671;DHT22;29267;50.906;7.248;2024-03-17T11:57:05;15.90;99.00
43671;DHT22;29267;50.906;7.248;2024-03-17T11:59:32;15.70;99.00
43671;DHT22;29267;50.906;7.248;2024-03-17T12:01:58;15.80;98.50
43671;DHT22;29267;50.906;7.248;2024-03-17T12:04:24;15.80;99.10
43671;DHT22;29267;50.906;7.248;2024-03-17T12:06:52;15.80;98.90
43671;DHT22;29267;50.906;7.248;2024-03-17T12:12:11;15.50;98.50
43671;DHT22;29267;50.906;7.248;2024-03-17T12:14:39;15.20;98.50
43671;DHT22;29267;50.906;7.248;2024-03-17T12:17:07;15.20;98.90
43671;DHT22;29267;50.906;7.248;2024-03-17T12:19:34;15.10;99.40
43671;DHT22;29267;50.906;7.248;2024-03-17T12:22:00;15.20;99.70
43671;DHT22;29267;50.906;7.248;2024-03-17T12:24:28;15.40;99.90
43671;DHT22;29267;50.906;7.248;2024-03-17T12:26:55;15.50;99.50
43671;DHT22;29267;50.906;7.248;2024-03-17T12:29:36;15.60;99.80
43671;DHT22;29267;50.906;7.248;2024-03-17T12:32:24;15.30;99.90
43671;DHT22;29267;50.906;7.248;2024-03-17T12:34:57;15.30;99.30
43671;DHT22;29267;50.906;7.248;2024-03-17T12:37:24;15.40;99.40
43671;DHT22;29267;50.906;7.248;2024-03-17T12:40:00;15.30;99.90
43671;DHT22;29267;50.906;7.248;2024-03-17T12:42:26;15.30;99.90
43671;DHT22;29267;50.906;7.248;2024-03-17T12:44:54;15.30;99.90
43671;DHT22;29267;50.906;7.248;2024-03-17T12:47:28;15.30;99.20
43671;DHT22;29267;50.906;7.248;2024-03-17T12:49:55;15.10;99.90
43671;DHT22;29267;50.906;7.248;2024-03-17T12:52:26;15.00;99.40
43671;DHT22;29267;50.906;7.248;2024-03-17T12:55:09;15.00;99.30
43671;DHT22;29267;50.906;7.248;2024-03-17T12:58:06;14.80;99.90
43671;DHT22;29267;50.906;7.248;2024-03-17T13:01:04;14.80;99.90
43671;DHT22;29267;50.906;7.248;2024-03-17T13:03:35;14.90;99.90
43671;DHT22;29267;50.906;7.248;2024-03-17T13:06:02;14.90;99.90
43671;DHT22;29267;50.906;7.248;2024-03-17T13:08:37;14.80;99.90
43671;DHT22;29267;50.906;7.248;2024-03-17T13:11:03;14.80;99.90
43671;DHT22;29267;50.906;7.248;2024-03-17T13:13:34;14.90;99.90
43671;DHT22;29267;50.906;7.248;2024-03-17T13:16:00;15.20;99.90
43671;DHT22;29267;50.906;7.248;2024-03-17T13:18:25;15.10;99.90
43671;DHT22;29267;50.906;7.248;2024-03-17T13:20:51;15.30;99.40
43671;DHT22;29267;50.906;7.248;2024-03-17T13:23:22;15.20;99.40
43671;DHT22;29267;50.906;7.248;2024-03-17T13:25:49;15.00;99.70
43671;DHT22;29267;50.906;7.248;2024-03-17T13:28:15;15.00;99.00
43671;DHT22;29267;50.906;7.248;2024-03-17T13:30:40;15.10;99.30
43671;DHT22;29267;50.906;7.248;2024-03-17T13:33:07;15.10;99.40
43671;DHT22;29267;50.906;7.248;2024-03-17T13:35:37;15.20;99.90
43671;DHT22;29267;50.906;7.248;2024-03-17T13:38:07;15.40;99.80
43671;DHT22;29267;50.906;7.248;2024-03-17T13:40:35;15.50;99.00
43671;DHT22;29267;50.906;7.248;2024-03-17T13:43:01;15.60;99.00
43671;DHT22;29267;50.906;7.248;2024-03-17T13:45:31;15.50;98.50
43671;DHT22;29267;50.906;7.248;2024-03-17T13:48:03;15.50;98.80
43671;DHT22;29267;50.906;7.248;2024-03-17T13:50:34;15.60;98.80
43671;DHT22;29267;50.906;7.248;2024-03-17T13:52:59;15.40;99.20
43671;DHT22;29267;50.906;7.248;2024-03-17T13:55:28;15.30;98.70
43671;DHT22;29267;50.906;7.248;2024-03-17T13:57:55;15.20;99.50
43671;DHT22;29267;50.906;7.248;2024-03-17T14:00:23;15.30;99.90
43671;DHT22;29267;50.906;7.248;2024-03-17T14:02:50;15.40;99.80
43671;DHT22;29267;50.906;7.248;2024-03-17T14:05:18;15.30;99.90
43671;DHT22;29267;50.906;7.248;2024-03-17T14:07:44;15.10;99.90
43671;DHT22;29267;50.906;7.248;2024-03-17T14:10:11;15.20;99.90
43671;DHT22;29267;50.906;7.248;2024-03-17T14:12:37;15.20;99.60
43671;DHT22;29267;50.906;7.248;2024-03-17T14:15:10;15.20;99.80
43671;DHT22;29267;50.906;7.248;2024-03-17T14:17:40;15.20;99.90
43671;DHT22;29267;50.906;7.248;2024-03-17T14:20:06;15.20;99.90
43671;DHT22;29267;50.906;7.248;2024-03-17T14:22:39;15.20;99.90
43671;DHT22;29267;50.906;7.248;2024-03-17T14:25:06;15.20;99.90
43671;DHT22;29267;50.906;7.248;2024-03-17T14:27:31;15.20;99.90
43671;DHT22;29267;50.906;7.248;2024-03-17T14:29:57;15.20;99.90
43671;DHT22;29267;50.906;7.248;2024-03-17T14:32:23;15.10;99.90
43671;DHT22;29267;50.906;7.248;2024-03-17T14:34:49;15.20;99.90
43671;DHT22;29267;50.906;7.248;2024-03-17T14:37:14;15.20;99.90
43671;DHT22;29267;50.906;7.248;2024-03-17T14:39:40;15.10;99.80
43671;DHT22;29267;50.906;7.248;2024-03-17T14:42:06;15.10;99.60
43671;DHT22;29267;50.906;7.248;2024-03-17T14:44:34;15.00;99.90
43671;DHT22;29267;50.906;7.248;2024-03-17T14:47:01;14.90;99.90
43671;DHT22;29267;50.906;7.248;2024-03-17T14:49:26;14.90;99.90
43671;DHT22;29267;50.906;7.248;2024-03-17T14:51:53;14.90;99.90
43671;DHT22;29267;50.906;7.248;2024-03-17T14:54:18;15.00;99.90
43671;DHT22;29267;50.906;7.248;2024-03-17T14:56:45;15.10;99.90
43671;DHT22;29267;50.906;7.248;2024-03-17T14:59:10;15.10;99.90
43671;DHT22;29267;50.906;7.248;2024-03-17T15:01:37;15.20;99.90
43671;DHT22;29267;50.906;7.248;2024-03-17T15:04:03;15.30;99.90
43671;DHT22;29267;50.906;7.248;2024-03-17T15:06:28;15.30;99.20
43671;DHT22;29267;50.906;7.248;2024-03-17T15:08:54;15.30;99.60
43671;DHT22;29267;50.906;7.248;2024-03-17T15:11:19;15.30;99.90
43671;DHT22;29267;50.906;7.248;2024-03-17T15:13:45;15.40;99.90
43671;DHT22;29267;50.906;7.248;2024-03-17T15:16:11;15.30;99.90
43671;DHT22;29267;50.906;7.248;2024-03-17T15:18:38;15.40;99.50
43671;DHT22;29267;50.906;7.248;2024-03-17T15:21:04;15.50;98.80
43671;DHT22;29267;50.906;7.248;2024-03-17T15:23:32;15.50;98.20
43671;DHT22;29267;50.906;7.248;2024-03-17T15:26:06;15.50;99.00
43671;DHT22;29267;50.906;7.248;2024-03-17T15:28:40;15.50;99.40
43671;DHT22;29267;50.906;7.248;2024-03-17T15:31:07;15.60;98.50
43671;DHT22;29267;50.906;7.248;2024-03-17T15:33:33;15.40;98.70
43671;DHT22;29267;50.906;7.248;2024-03-17T15:36:01;15.50;99.20
43671;DHT22;29267;50.906;7.248;2024-03-17T15:38:32;15.40;98.50
43671;DHT22;29267;50.906;7.248;2024-03-17T15:41:18;15.30;98.70
43671;DHT22;29267;50.906;7.248;2024-03-17T15:43:44;15.00;98.70
43671;DHT22;29267;50.906;7.248;2024-03-17T15:46:15;15.00;99.90
43671;DHT22;29267;50.906;7.248;2024-03-17T15:48:44;15.00;99.90
43671;DHT22;29267;50.906;7.248;2024-03-17T15:51:10;15.00;99.30
43671;DHT22;29267;50.906;7.248;2024-03-17T15:53:36;14.90;98.60
43671;DHT22;29267;50.906;7.248;2024-03-17T15:56:03;14.80;99.30
43671;DHT22;29267;50.906;7.248;2024-03-17T15:58:31;14.80;99.30